sensor_id;sensor_type;location;lat;lon;timestamp;pressure;altitude;pressure_sealevel;temperature;humidity
50702;BME280;36670;50.094;8.496;2023-02-18T00:02:11;101092.28;;;13.85;70.75
50702;BME280;36670;50.094;8.496;2023-02-18T00:04:36;101084.81;;;13.69;71.17
50702;BME280;36670;50.094;8.496;2023-02-18T00:07:01;101097.59;;;13.53;71.65
50702;BME280;36670;50.094;8.496;2023-02-18T00:09:27;101089.53;;;13.68;71.08
50702;BME280;36670;50.094;8.496;2023-02-18T00:11:52;101096.75;;;13.69;71.79
50702;BME280;36670;50.094;8.496;2023-02-18T00:14:17;101100.72;;;13.56;72.02
50702;BME280;36670;50.094;8.496;2023-02-18T00:16:43;101095.31;;;13.66;71.52
50702;BME280;36670;50.094;8.496;2023-02-18T00:19:15;101091.13;;;13.64;71.60
50702;BME280;36670;50.094;8.496;2023-02-18T00:21:40;101086.81;;;13.73;71.60
50702;BME280;36670;50.094;8.496;2023-02-18T00:24:07;101076.47;;;13.69;71.29
50702;BME280;36670;50.094;8.496;2023-02-18T00:26:34;101096.59;;;13.59;71.58
50702;BME280;36670;50.094;8.496;2023-02-18T00:28:59;101093.47;;;13.55;72.22
50702;BME280;36670;50.094;8.496;2023-02-18T00:31:27;101089.69;;;13.61;72.46
50702;BME280;36670;50.094;8.496;2023-02-18T00:33:54;101082.97;;;13.57;72.04
50702;BME280;36670;50.094;8.496;2023-02-18T00:36:21;101094.72;;;13.64;72.09
50702;BME280;36670;50.094;8.496;2023-02-18T00:38:49;101099.47;;;13.64;72.50
50702;BME280;36670;50.094;8.496;2023-02-18T00:41:15;101094.06;;;13.57;72.15
50702;BME280;36670;50.094;8.496;2023-02-18T00:43:41;101085.31;;;13.65;72.28
50702;BME280;36670;50.094;8.496;2023-02-18T00:46:08;101079.56;;;13.72;71.74
50702;BME280;36670;50.094;8.496;2023-02-18T00:48:34;101085.06;;;13.67;71.97
50702;BME280;36670;50.094;8.496;2023-02-18T00:51:00;101086.91;;;13.78;72.34
50702;BME280;36670;50.094;8.496;2023-02-18T00:53:27;101087.13;;;14.16;71.33
50702;BME280;36670;50.094;8.496;2023-02-18T00:55:53;101097.09;;;14.12;70.29
50702;BME280;36670;50.094;8.496;2023-02-18T00:58:18;101098.69;;;14.08;71.17
50702;BME280;36670;50.094;8.496;2023-02-18T01:00:44;101108.00;;;14.19;71.05
50702;BME280;36670;50.094;8.496;2023-02-18T01:03:12;101097.91;;;14.12;70.44
50702;BME280;36670;50.094;8.496;2023-02-18T01:05:38;101103.53;;;14.17;71.11
50702;BME280;36670;50.094;8.496;2023-02-18T01:08:04;101099.72;;;14.02;70.26
50702;BME280;36670;50.094;8.496;2023-02-18T01:10:30;101097.00;;;13.68;71.70
50702;BME280;36670;50.094;8.496;2023-02-18T01:12:56;101108.00;;;13.62;71.48
50702;BME280;36670;50.094;8.496;2023-02-18T01:15:22;101095.41;;;13.55;71.60
50702;BME280;36670;50.094;8.496;2023-02-18T01:17:47;101105.59;;;13.49;71.48
50702;BME280;36670;50.094;8.496;2023-02-18T01:20:13;101097.00;;;13.17;73.24
50702;BME280;36670;50.094;8.496;2023-02-18T01:22:39;101099.56;;;13.23;72.34
50702;BME280;36670;50.094;8.496;2023-02-18T01:25:06;101090.97;;;13.37;72.15
50702;BME280;36670;50.094;8.496;2023-02-18T01:27:31;101086.75;;;13.51;71.61
50702;BME280;36670;50.094;8.496;2023-02-18T01:29:57;101085.00;;;13.45;72.05
50702;BME280;36670;50.094;8.496;2023-02-18T01:32:22;101086.19;;;13.49;70.96
50702;BME280;36670;50.094;8.496;2023-02-18T01:34:48;101073.06;;;13.61;71.78
50702;BME280;36670;50.094;8.496;2023-02-18T01:37:13;101066.16;;;13.64;70.63
50702;BME280;36670;50.094;8.496;2023-02-18T01:39:38;101072.63;;;13.70;70.85
50702;BME280;36670;50.094;8.496;2023-02-18T01:42:04;101074.97;;;13.61;70.96
50702;BME280;36670;50.094;8.496;2023-02-18T01:44:33;101070.44;;;13.55;70.54
50702;BME280;36670;50.094;8.496;2023-02-18T01:46:58;101065.66;;;13.50;70.88
50702;BME280;36670;50.094;8.496;2023-02-18T01:49:28;101065.53;;;13.11;71.30
50702;BME280;36670;50.094;8.496;2023-02-18T01:51:59;101067.97;;;13.24;71.45
50702;BME280;36670;50.094;8.496;2023-02-18T01:54:31;101060.00;;;13.11;71.92
50702;BME280;36670;50.094;8.496;2023-02-18T01:57:17;101063.41;;;13.01;71.27
50702;BME280;36670;50.094;8.496;2023-02-18T01:59:54;101065.47;;;13.23;71.66
50702;BME280;36670;50.094;8.496;2023-02-18T02:02:23;101051.88;;;13.38;70.34
50702;BME280;36670;50.094;8.496;2023-02-18T02:04:49;101054.13;;;13.58;69.70
50702;BME280;36670;50.094;8.496;2023-02-18T02:07:15;101057.56;;;13.65;70.19
50702;BME280;36670;50.094;8.496;2023-02-18T02:09:42;101056.13;;;14.02;69.76
50702;BME280;36670;50.094;8.496;2023-02-18T02:12:27;101042.31;;;13.85;69.14
50702;BME280;36670;50.094;8.496;2023-02-18T02:15:27;101048.13;;;13.66;69.61
50702;BME280;36670;50.094;8.496;2023-02-18T02:18:15;101043.41;;;13.84;69.21
50702;BME280;36670;50.094;8.496;2023-02-18T02:24:08;101045.44;;;13.72;69.10
50702;BME280;36670;50.094;8.496;2023-02-18T02:29:32;101045.22;;;13.56;69.23
50702;BME280;36670;50.094;8.496;2023-02-18T02:34:44;101046.81;;;13.52;69.76
50702;BME280;36670;50.094;8.496;2023-02-18T02:37:21;101033.03;;;13.57;69.13
50702;BME280;36670;50.094;8.496;2023-02-18T02:40:00;101020.97;;;13.69;68.80
50702;BME280;36670;50.094;8.496;2023-02-18T02:46:01;101004.44;;;13.57;68.97
50702;BME280;36670;50.094;8.496;2023-02-18T02:48:48;100995.19;;;13.51;69.07
50702;BME280;36670;50.094;8.496;2023-02-18T02:51:23;101003.84;;;13.21;69.05
50702;BME280;36670;50.094;8.496;2023-02-18T02:53:51;101013.63;;;13.23;69.40
50702;BME280;36670;50.094;8.496;2023-02-18T02:56:22;100986.66;;;13.02;69.69
50702;BME280;36670;50.094;8.496;2023-02-18T02:59:00;101005.81;;;13.37;68.93
50702;BME280;36670;50.094;8.496;2023-02-18T03:01:36;101002.47;;;13.35;69.64
50702;BME280;36670;50.094;8.496;2023-02-18T03:04:31;101003.84;;;13.21;69.54
50702;BME280;36670;50.094;8.496;2023-02-18T03:12:49;101015.78;;;13.55;69.83
50702;BME280;36670;50.094;8.496;2023-02-18T03:15:26;101015.53;;;13.57;69.11
50702;BME280;36670;50.094;8.496;2023-02-18T03:18:21;101006.25;;;13.46;69.35
50702;BME280;36670;50.094;8.496;2023-02-18T03:20:55;101006.81;;;13.31;69.35
50702;BME280;36670;50.094;8.496;2023-02-18T03:23:26;100996.31;;;13.50;69.07
50702;BME280;36670;50.094;8.496;2023-02-18T03:25:55;100992.16;;;13.53;69.31
50702;BME280;36670;50.094;8.496;2023-02-18T03:28:23;100993.16;;;13.63;69.68
50702;BME280;36670;50.094;8.496;2023-02-18T03:30:53;100991.16;;;13.59;68.92
50702;BME280;36670;50.094;8.496;2023-02-18T03:33:31;100994.25;;;13.62;68.79
50702;BME280;36670;50.094;8.496;2023-02-18T03:35:58;100990.72;;;13.67;68.63
50702;BME280;36670;50.094;8.496;2023-02-18T03:40:52;101014.47;;;13.24;69.58
50702;BME280;36670;50.094;8.496;2023-02-18T03:43:17;101011.34;;;13.20;69.71
50702;BME280;36670;50.094;8.496;2023-02-18T03:45:43;101007.41;;;12.99;69.64
50702;BME280;36670;50.094;8.496;2023-02-18T03:48:08;101009.00;;;13.12;70.20
50702;BME280;36670;50.094;8.496;2023-02-18T03:50:33;101006.66;;;13.04;69.90
50702;BME280;36670;50.094;8.496;2023-02-18T03:52:59;100993.38;;;13.06;69.62
50702;BME280;36670;50.094;8.496;2023-02-18T03:55:24;100991.69;;;13.22;69.62
50702;BME280;36670;50.094;8.496;2023-02-18T03:57:49;100997.66;;;13.30;69.71
50702;BME280;36670;50.094;8.496;2023-02-18T04:00:15;100994.91;;;13.30;69.20
50702;BME280;36670;50.094;8.496;2023-02-18T04:02:41;100990.34;;;13.41;69.02
50702;BME280;36670;50.094;8.496;2023-02-18T04:05:08;100991.50;;;13.28;69.13
50702;BME280;36670;50.094;8.496;2023-02-18T04:07:34;100977.94;;;13.10;70.24
50702;BME280;36670;50.094;8.496;2023-02-18T04:09:59;100979.09;;;13.14;69.66
50702;BME280;36670;50.094;8.496;2023-02-18T04:12:25;100984.13;;;13.17;69.83
50702;BME280;36670;50.094;8.496;2023-02-18T04:14:50;100983.53;;;13.15;70.10
50702;BME280;36670;50.094;8.496;2023-02-18T04:17:15;100981.19;;;13.07;69.74
50702;BME280;36670;50.094;8.496;2023-02-18T04:19:41;100983.53;;;13.15;70.13
50702;BME280;36670;50.094;8.496;2023-02-18T04:22:06;100974.22;;;13.38;69.69
50702;BME280;36670;50.094;8.496;2023-02-18T04:24:31;100977.09;;;13.26;69.91
50702;BME280;36670;50.094;8.496;2023-02-18T04:26:56;100974.38;;;13.31;69.56
50702;BME280;36670;50.094;8.496;2023-02-18T04:29:22;100973.84;;;13.35;69.71
50702;BME280;36670;50.094;8.496;2023-02-18T04:31:47;100973.56;;;13.14;69.16
50702;BME280;36670;50.094;8.496;2023-02-18T04:34:12;100974.13;;;13.16;69.94
50702;BME280;36670;50.094;8.496;2023-02-18T04:36:38;100976.06;;;13.15;69.80
50702;BME280;36670;50.094;8.496;2023-02-18T04:39:03;100976.22;;;13.26;69.97
50702;BME280;36670;50.094;8.496;2023-02-18T04:41:28;100973.03;;;13.17;69.79
50702;BME280;36670;50.094;8.496;2023-02-18T04:43:54;100975.97;;;13.27;69.24
50702;BME280;36670;50.094;8.496;2023-02-18T04:46:19;100983.97;;;13.24;69.79
50702;BME280;36670;50.094;8.496;2023-02-18T04:48:44;100978.72;;;13.27;69.04
50702;BME280;36670;50.094;8.496;2023-02-18T04:51:10;100974.06;;;13.28;69.40
50702;BME280;36670;50.094;8.496;2023-02-18T04:53:35;100977.75;;;13.17;69.69
50702;BME280;36670;50.094;8.496;2023-02-18T04:56:00;100976.72;;;13.23;69.17
50702;BME280;36670;50.094;8.496;2023-02-18T04:58:26;100978.47;;;13.29;69.51
50702;BME280;36670;50.094;8.496;2023-02-18T05:00:51;100970.75;;;13.31;69.65
50702;BME280;36670;50.094;8.496;2023-02-18T05:03:18;100973.44;;;13.26;69.64
50702;BME280;36670;50.094;8.496;2023-02-18T05:05:43;100962.94;;;13.45;69.31
50702;BME280;36670;50.094;8.496;2023-02-18T05:08:10;100960.56;;;13.54;68.61
50702;BME280;36670;50.094;8.496;2023-02-18T05:10:36;100957.78;;;13.54;69.42
50702;BME280;36670;50.094;8.496;2023-02-18T05:13:02;100945.53;;;13.32;69.30
50702;BME280;36670;50.094;8.496;2023-02-18T05:15:27;100953.72;;;13.22;69.55
50702;BME280;36670;50.094;8.496;2023-02-18T05:17:52;100951.38;;;13.14;70.81
50702;BME280;36670;50.094;8.496;2023-02-18T05:20:18;100958.09;;;13.18;70.18
50702;BME280;36670;50.094;8.496;2023-02-18T05:22:43;100941.94;;;13.15;70.97
50702;BME280;36670;50.094;8.496;2023-02-18T05:25:08;100935.41;;;13.21;70.37
50702;BME280;36670;50.094;8.496;2023-02-18T05:27:33;100928.28;;;13.08;70.56
50702;BME280;36670;50.094;8.496;2023-02-18T05:29:59;100923.84;;;12.90;71.66
50702;BME280;36670;50.094;8.496;2023-02-18T05:32:24;100922.00;;;12.79;72.00
50702;BME280;36670;50.094;8.496;2023-02-18T05:34:49;100920.06;;;12.79;71.69
50702;BME280;36670;50.094;8.496;2023-02-18T05:37:15;100928.13;;;12.81;71.57
50702;BME280;36670;50.094;8.496;2023-02-18T05:39:42;100905.63;;;12.77;71.23
50702;BME280;36670;50.094;8.496;2023-02-18T05:42:08;100921.00;;;12.85;71.50
50702;BME280;36670;50.094;8.496;2023-02-18T05:44:33;100925.44;;;12.86;71.38
50702;BME280;36670;50.094;8.496;2023-02-18T05:47:05;100922.66;;;12.69;72.40
50702;BME280;36670;50.094;8.496;2023-02-18T05:49:31;100917.13;;;12.86;71.63
50702;BME280;36670;50.094;8.496;2023-02-18T05:51:57;100914.09;;;12.88;71.28
50702;BME280;36670;50.094;8.496;2023-02-18T05:54:23;100914.69;;;12.73;71.85
50702;BME280;36670;50.094;8.496;2023-02-18T05:56:49;100915.97;;;12.65;71.94
50702;BME280;36670;50.094;8.496;2023-02-18T05:59:14;100909.97;;;12.56;72.86
50702;BME280;36670;50.094;8.496;2023-02-18T06:01:40;100900.06;;;12.77;71.55
50702;BME280;36670;50.094;8.496;2023-02-18T06:04:05;100898.13;;;12.95;71.83
50702;BME280;36670;50.094;8.496;2023-02-18T06:06:30;100891.00;;;12.99;71.13
50702;BME280;36670;50.094;8.496;2023-02-18T06:08:56;100887.72;;;13.02;71.81
50702;BME280;36670;50.094;8.496;2023-02-18T06:11:21;100887.88;;;12.95;71.44
50702;BME280;36670;50.094;8.496;2023-02-18T06:13:46;100894.03;;;12.97;71.04
50702;BME280;36670;50.094;8.496;2023-02-18T06:16:12;100886.78;;;12.96;71.46
50702;BME280;36670;50.094;8.496;2023-02-18T06:18:37;100891.25;;;12.97;70.69
50702;BME280;36670;50.094;8.496;2023-02-18T06:21:02;100891.34;;;13.03;70.56
50702;BME280;36670;50.094;8.496;2023-02-18T06:23:28;100890.91;;;12.94;70.44
50702;BME280;36670;50.094;8.496;2023-02-18T06:25:53;100897.06;;;12.96;70.72
50702;BME280;36670;50.094;8.496;2023-02-18T06:28:19;100891.44;;;12.74;70.61
50702;BME280;36670;50.094;8.496;2023-02-18T06:30:45;100898.47;;;12.81;70.17
50702;BME280;36670;50.094;8.496;2023-02-18T06:33:10;100896.81;;;12.63;70.83
50702;BME280;36670;50.094;8.496;2023-02-18T06:35:36;100901.41;;;12.58;70.92
50702;BME280;36670;50.094;8.496;2023-02-18T06:38:01;100906.91;;;12.70;70.02
50702;BME280;36670;50.094;8.496;2023-02-18T06:40:27;100901.34;;;12.70;69.83
50702;BME280;36670;50.094;8.496;2023-02-18T06:42:52;100912.09;;;12.66;70.24
50702;BME280;36670;50.094;8.496;2023-02-18T06:45:18;100914.84;;;12.83;69.42
50702;BME280;36670;50.094;8.496;2023-02-18T06:47:43;100921.66;;;12.75;69.33
50702;BME280;36670;50.094;8.496;2023-02-18T06:50:09;100911.16;;;12.77;69.02
50702;BME280;36670;50.094;8.496;2023-02-18T06:52:34;100903.97;;;12.76;67.92
50702;BME280;36670;50.094;8.496;2023-02-18T06:55:05;100904.13;;;12.70;68.29
50702;BME280;36670;50.094;8.496;2023-02-18T06:57:31;100899.00;;;12.61;67.63
50702;BME280;36670;50.094;8.496;2023-02-18T06:59:56;100903.03;;;12.71;68.13
50702;BME280;36670;50.094;8.496;2023-02-18T07:02:22;100897.16;;;12.67;67.27
50702;BME280;36670;50.094;8.496;2023-02-18T07:04:47;100903.25;;;12.69;66.71
50702;BME280;36670;50.094;8.496;2023-02-18T07:07:12;100890.94;;;12.60;66.49
50702;BME280;36670;50.094;8.496;2023-02-18T07:09:38;100891.03;;;12.65;67.18
50702;BME280;36670;50.094;8.496;2023-02-18T07:12:03;100886.41;;;12.54;66.56
50702;BME280;36670;50.094;8.496;2023-02-18T07:14:29;100880.59;;;12.55;66.28
50702;BME280;36670;50.094;8.496;2023-02-18T07:16:54;100882.53;;;12.55;65.73
50702;BME280;36670;50.094;8.496;2023-02-18T07:19:19;100870.53;;;12.49;65.85
50702;BME280;36670;50.094;8.496;2023-02-18T07:21:45;100879.34;;;12.46;65.43
50702;BME280;36670;50.094;8.496;2023-02-18T07:24:10;100871.63;;;12.48;65.71
50702;BME280;36670;50.094;8.496;2023-02-18T07:26:35;100882.78;;;12.53;65.61
50702;BME280;36670;50.094;8.496;2023-02-18T07:29:00;100880.59;;;12.55;65.46
50702;BME280;36670;50.094;8.496;2023-02-18T07:31:26;100881.97;;;12.70;64.45
50702;BME280;36670;50.094;8.496;2023-02-18T07:33:51;100879.03;;;12.76;64.58
50702;BME280;36670;50.094;8.496;2023-02-18T07:36:17;100878.59;;;12.68;63.70
50702;BME280;36670;50.094;8.496;2023-02-18T07:38:42;100886.13;;;12.55;63.49
50702;BME280;36670;50.094;8.496;2023-02-18T07:41:20;100892.84;;;12.59;64.13
50702;BME280;36670;50.094;8.496;2023-02-18T07:43:46;100890.44;;;12.63;63.34
50702;BME280;36670;50.094;8.496;2023-02-18T07:46:12;100884.63;;;12.64;63.25
50702;BME280;36670;50.094;8.496;2023-02-18T07:48:37;100880.38;;;12.74;62.62
50702;BME280;36670;50.094;8.496;2023-02-18T07:51:07;100880.69;;;12.60;62.57
50702;BME280;36670;50.094;8.496;2023-02-18T07:53:33;100872.56;;;12.71;61.72
50702;BME280;36670;50.094;8.496;2023-02-18T07:55:59;100888.75;;;12.62;62.17
50702;BME280;36670;50.094;8.496;2023-02-18T07:58:27;100872.13;;;12.45;61.76
50702;BME280;36670;50.094;8.496;2023-02-18T08:00:53;100868.28;;;12.63;62.23
50702;BME280;36670;50.094;8.496;2023-02-18T08:03:24;100876.00;;;12.61;61.65
50702;BME280;36670;50.094;8.496;2023-02-18T08:05:51;100860.53;;;12.48;61.58
50702;BME280;36670;50.094;8.496;2023-02-18T08:08:23;100856.63;;;12.61;61.11
50702;BME280;36670;50.094;8.496;2023-02-18T08:10:49;100859.47;;;12.49;61.06
50702;BME280;36670;50.094;8.496;2023-02-18T08:13:15;100869.09;;;12.46;61.50
50702;BME280;36670;50.094;8.496;2023-02-18T08:15:41;100857.97;;;12.58;60.68
50702;BME280;36670;50.094;8.496;2023-02-18T08:18:08;100862.97;;;13.18;60.06
50702;BME280;36670;50.094;8.496;2023-02-18T08:20:38;100870.56;;;13.66;58.05
50702;BME280;36670;50.094;8.496;2023-02-18T08:23:04;100856.84;;;13.55;57.57
50702;BME280;36670;50.094;8.496;2023-02-18T08:25:30;100871.88;;;13.20;59.11
50702;BME280;36670;50.094;8.496;2023-02-18T08:27:56;100869.78;;;12.88;59.54
50702;BME280;36670;50.094;8.496;2023-02-18T08:30:21;100871.00;;;12.97;59.66
50702;BME280;36670;50.094;8.496;2023-02-18T08:32:47;100873.72;;;12.92;58.81
50702;BME280;36670;50.094;8.496;2023-02-18T08:35:12;100870.38;;;12.73;58.96
50702;BME280;36670;50.094;8.496;2023-02-18T08:37:38;100874.28;;;12.94;59.71
50702;BME280;36670;50.094;8.496;2023-02-18T08:40:04;100886.03;;;13.01;59.20
50702;BME280;36670;50.094;8.496;2023-02-18T08:42:30;100881.22;;;13.13;58.82
50702;BME280;36670;50.094;8.496;2023-02-18T08:44:55;100894.91;;;13.20;58.47
50702;BME280;36670;50.094;8.496;2023-02-18T08:47:20;100891.31;;;13.20;58.58
50702;BME280;36670;50.094;8.496;2023-02-18T08:49:46;100895.53;;;13.27;58.29
50702;BME280;36670;50.094;8.496;2023-02-18T08:52:11;100899.28;;;13.16;58.18
50702;BME280;36670;50.094;8.496;2023-02-18T08:54:36;100904.84;;;12.99;58.34
50702;BME280;36670;50.094;8.496;2023-02-18T08:57:01;100899.53;;;13.14;57.62
50702;BME280;36670;50.094;8.496;2023-02-18T08:59:27;100892.50;;;13.29;58.25
50702;BME280;36670;50.094;8.496;2023-02-18T09:01:52;100900.88;;;13.51;57.66
50702;BME280;36670;50.094;8.496;2023-02-18T09:04:18;100898.81;;;13.41;57.40
50702;BME280;36670;50.094;8.496;2023-02-18T09:06:48;100893.69;;;13.50;57.91
50702;BME280;36670;50.094;8.496;2023-02-18T09:09:14;100883.94;;;13.47;56.98
50702;BME280;36670;50.094;8.496;2023-02-18T09:11:40;100879.66;;;13.40;56.61
50702;BME280;36670;50.094;8.496;2023-02-18T09:14:05;100888.69;;;13.52;56.99
50702;BME280;36670;50.094;8.496;2023-02-18T09:16:30;100888.56;;;13.42;56.92
50702;BME280;36670;50.094;8.496;2023-02-18T09:18:56;100888.06;;;13.45;57.76
50702;BME280;36670;50.094;8.496;2023-02-18T09:21:22;100883.59;;;13.66;57.59
50702;BME280;36670;50.094;8.496;2023-02-18T09:23:49;100886.31;;;13.61;56.46
50702;BME280;36670;50.094;8.496;2023-02-18T09:26:17;100899.97;;;13.68;57.11
50702;BME280;36670;50.094;8.496;2023-02-18T09:28:45;100898.44;;;13.55;57.36
50702;BME280;36670;50.094;8.496;2023-02-18T09:31:15;100891.53;;;13.57;57.54
50702;BME280;36670;50.094;8.496;2023-02-18T09:33:47;100895.41;;;13.56;57.23
50702;BME280;36670;50.094;8.496;2023-02-18T09:36:13;100887.88;;;13.52;57.19
50702;BME280;36670;50.094;8.496;2023-02-18T09:38:39;100886.25;;;13.56;56.91
50702;BME280;36670;50.094;8.496;2023-02-18T09:41:08;100875.91;;;13.51;57.32
50702;BME280;36670;50.094;8.496;2023-02-18T09:43:41;100883.06;;;13.47;56.40
50702;BME280;36670;50.094;8.496;2023-02-18T09:46:18;100897.81;;;13.47;56.99
50702;BME280;36670;50.094;8.496;2023-02-18T09:48:45;100893.00;;;13.43;57.68
50702;BME280;36670;50.094;8.496;2023-02-18T09:51:14;100899.19;;;13.28;56.50
50702;BME280;36670;50.094;8.496;2023-02-18T09:53:41;100905.03;;;13.31;57.65
50702;BME280;36670;50.094;8.496;2023-02-18T09:56:11;100897.56;;;13.32;57.25
50702;BME280;36670;50.094;8.496;2023-02-18T09:58:39;100900.84;;;13.29;56.92
50702;BME280;36670;50.094;8.496;2023-02-18T10:01:26;100910.78;;;13.42;57.05
50702;BME280;36670;50.094;8.496;2023-02-18T10:03:54;100900.59;;;13.30;56.66
50702;BME280;36670;50.094;8.496;2023-02-18T10:06:25;100898.59;;;13.26;56.93
50702;BME280;36670;50.094;8.496;2023-02-18T10:08:52;100896.19;;;13.35;57.40
50702;BME280;36670;50.094;8.496;2023-02-18T10:13:56;100901.53;;;13.19;57.52
50702;BME280;36670;50.094;8.496;2023-02-18T10:16:23;100876.41;;;13.26;57.26
50702;BME280;36670;50.094;8.496;2023-02-18T10:18:53;100876.13;;;13.27;57.86
50702;BME280;36670;50.094;8.496;2023-02-18T10:21:23;100874.97;;;13.40;57.26
50702;BME280;36670;50.094;8.496;2023-02-18T10:26:21;100877.56;;;13.30;57.19
50702;BME280;36670;50.094;8.496;2023-02-18T10:28:47;100870.78;;;13.38;57.46
50702;BME280;36670;50.094;8.496;2023-02-18T10:31:17;100868.38;;;13.46;57.40
50702;BME280;36670;50.094;8.496;2023-02-18T10:36:22;100869.34;;;13.35;57.53
50702;BME280;36670;50.094;8.496;2023-02-18T10:39:04;100876.88;;;13.40;56.97
50702;BME280;36670;50.094;8.496;2023-02-18T10:41:39;100881.41;;;13.46;56.73
50702;BME280;36670;50.094;8.496;2023-02-18T10:47:05;100873.13;;;13.51;57.18
50702;BME280;36670;50.094;8.496;2023-02-18T10:50:24;100865.56;;;13.24;56.68
50702;BME280;36670;50.094;8.496;2023-02-18T10:52:39;100873.06;;;13.07;58.11
50702;BME280;36670;50.094;8.496;2023-02-18T10:55:08;100875.22;;;13.22;57.71
50702;BME280;36670;50.094;8.496;2023-02-18T10:57:33;100875.81;;;13.41;57.13
50702;BME280;36670;50.094;8.496;2023-02-18T11:02:29;100870.69;;;13.55;56.78
50702;BME280;36670;50.094;8.496;2023-02-18T11:04:59;100864.44;;;13.42;57.50
50702;BME280;36670;50.094;8.496;2023-02-18T11:07:33;100860.13;;;13.35;57.07
50702;BME280;36670;50.094;8.496;2023-02-18T11:10:01;100853.13;;;13.27;56.84
50702;BME280;36670;50.094;8.496;2023-02-18T11:12:48;100848.69;;;13.48;57.20
50702;BME280;36670;50.094;8.496;2023-02-18T11:15:20;100855.06;;;13.48;57.32
50702;BME280;36670;50.094;8.496;2023-02-18T11:17:48;100852.31;;;13.48;57.33
50702;BME280;36670;50.094;8.496;2023-02-18T11:22:51;100842.44;;;13.58;56.76
50702;BME280;36670;50.094;8.496;2023-02-18T11:25:22;100838.88;;;13.62;57.15
50702;BME280;36670;50.094;8.496;2023-02-18T11:27:54;100831.84;;;13.77;56.62
50702;BME280;36670;50.094;8.496;2023-02-18T11:33:09;100830.16;;;13.76;55.97
50702;BME280;36670;50.094;8.496;2023-02-18T11:35:38;100822.41;;;13.78;56.36
50702;BME280;36670;50.094;8.496;2023-02-18T11:38:17;100824.97;;;13.85;56.26
50702;BME280;36670;50.094;8.496;2023-02-18T11:40:56;100820.63;;;13.94;56.50
50702;BME280;36670;50.094;8.496;2023-02-18T11:43:28;100816.63;;;13.85;55.55
50702;BME280;36670;50.094;8.496;2023-02-18T11:46:15;100805.56;;;13.62;55.43
50702;BME280;36670;50.094;8.496;2023-02-18T11:48:41;100812.75;;;13.58;55.88
50702;BME280;36670;50.094;8.496;2023-02-18T11:51:27;100805.84;;;13.61;56.00
50702;BME280;36670;50.094;8.496;2023-02-18T11:54:00;100805.31;;;13.37;56.12
50702;BME280;36670;50.094;8.496;2023-02-18T11:56:29;100789.44;;;13.54;55.84
50702;BME280;36670;50.094;8.496;2023-02-18T11:58:56;100789.66;;;13.53;56.59
50702;BME280;36670;50.094;8.496;2023-02-18T12:01:43;100791.03;;;13.50;56.29
50702;BME280;36670;50.094;8.496;2023-02-18T12:04:11;100779.22;;;13.60;55.72
50702;BME280;36670;50.094;8.496;2023-02-18T12:06:44;100765.84;;;13.57;55.99
50702;BME280;36670;50.094;8.496;2023-02-18T12:09:30;100777.00;;;13.62;56.72
50702;BME280;36670;50.094;8.496;2023-02-18T12:12:17;100777.06;;;13.67;56.03
50702;BME280;36670;50.094;8.496;2023-02-18T12:14:44;100769.09;;;13.76;56.34
50702;BME280;36670;50.094;8.496;2023-02-18T12:17:27;100757.78;;;13.55;56.44
50702;BME280;36670;50.094;8.496;2023-02-18T12:22:58;100773.50;;;13.72;55.80
50702;BME280;36670;50.094;8.496;2023-02-18T12:28:24;100751.72;;;13.86;56.08
50702;BME280;36670;50.094;8.496;2023-02-18T12:33:43;100755.09;;;14.25;55.59
50702;BME280;36670;50.094;8.496;2023-02-18T12:39:24;100769.84;;;13.98;56.28
50702;BME280;36670;50.094;8.496;2023-02-18T12:42:22;100770.19;;;14.02;56.34
50702;BME280;36670;50.094;8.496;2023-02-18T12:47:48;100783.59;;;13.83;56.54
50702;BME280;36670;50.094;8.496;2023-02-18T12:50:39;100778.97;;;13.94;56.40
50702;BME280;36670;50.094;8.496;2023-02-18T12:53:29;100774.13;;;13.79;56.67
50702;BME280;36670;50.094;8.496;2023-02-18T12:56:31;100780.06;;;13.88;55.93
50702;BME280;36670;50.094;8.496;2023-02-18T13:04:30;100783.31;;;13.79;58.11
50702;BME280;36670;50.094;8.496;2023-02-18T13:07:13;100781.47;;;13.63;60.18
50702;BME280;36670;50.094;8.496;2023-02-18T13:10:03;100791.25;;;13.71;59.69
50702;BME280;36670;50.094;8.496;2023-02-18T13:12:50;100792.75;;;13.56;60.35
50702;BME280;36670;50.094;8.496;2023-02-18T13:15:30;100793.09;;;13.60;60.34
50702;BME280;36670;50.094;8.496;2023-02-18T13:18:04;100797.50;;;13.56;61.68
50702;BME280;36670;50.094;8.496;2023-02-18T13:20:40;100782.44;;;13.79;61.00
50702;BME280;36670;50.094;8.496;2023-02-18T13:23:12;100795.16;;;13.75;60.51
50702;BME280;36670;50.094;8.496;2023-02-18T13:25:40;100780.19;;;13.76;61.20
50702;BME280;36670;50.094;8.496;2023-02-18T13:28:27;100774.66;;;13.76;60.47
50702;BME280;36670;50.094;8.496;2023-02-18T13:34:12;100767.81;;;13.89;59.90
50702;BME280;36670;50.094;8.496;2023-02-18T13:39:21;100773.66;;;14.20;60.04
50702;BME280;36670;50.094;8.496;2023-02-18T13:41:49;100776.56;;;14.35;60.43
50702;BME280;36670;50.094;8.496;2023-02-18T13:46:51;100770.47;;;14.38;59.16
50702;BME280;36670;50.094;8.496;2023-02-18T13:49:21;100766.53;;;14.34;59.38
50702;BME280;36670;50.094;8.496;2023-02-18T13:51:49;100763.81;;;14.39;59.29
50702;BME280;36670;50.094;8.496;2023-02-18T13:54:25;100764.09;;;14.43;59.39
50702;BME280;36670;50.094;8.496;2023-02-18T13:57:00;100763.22;;;14.37;58.91
50702;BME280;36670;50.094;8.496;2023-02-18T13:59:36;100781.00;;;14.36;59.59
50702;BME280;36670;50.094;8.496;2023-02-18T14:02:31;100768.88;;;14.15;59.96
50702;BME280;36670;50.094;8.496;2023-02-18T14:05:15;100772.38;;;14.00;60.46
50702;BME280;36670;50.094;8.496;2023-02-18T14:07:49;100786.25;;;14.00;60.11
50702;BME280;36670;50.094;8.496;2023-02-18T14:13:16;100774.50;;;13.60;62.79